Delta (SEI) Heliport

CSE7 · 不列颠哥伦比亚, 加拿大

罗盘
风向 的 直升机
风: 0 kt, 0 beaufort
0 ft 6.000 12.000 18.000 24.000 30.000
Cloud Cloud
FEW 2.500
Cloud Cloud
FEW 8.000
Cloud Cloud
FEW 20.000
Cloud Cloud Cloud Cloud
SCT 22.000
METAR CYVR 232200Z 00000KT 15SM FEW025 FEW080 FEW200 SCT220 10/08 A3028 RMK CU1AC1CC1CI2 CC TR SLP257

METAR Delta (SEI) Heliport - CSE7

Delta (SEI) Heliport是,加拿大中的直升机场。 该机场位于纬度49,12909和经度-123,01840。 该机场的伪ICAO代码为CSE7。 机场在Vancouver FIR中。

该航空气象观测是针对Vancouver International Airport在2024年2月23日 14:00, 当地时间进行的。

机场观察

可变方向的风很小或没有风。

可见度为15 mi。

有几云在2.500 ft的高度, 几云在8.000 ft的高度, 几云在20.000 ft的高度 和 疏云,零星散落的云朵在22.000 ft的高度。 没有观察到天花板。

温度和风寒是10 °C。 露点为8 °C,相对湿度为88%。 海平面上的气压为30,28 inHg (QNH)。

白天

今天,太阳从07:06升起,在17:44降落。 这适用于Delta (SEI) Heliport,世界夏令时可能有所不同。 当地时间与世界标准时间之间的时差为-8 小时。 当前,没有夏令时有效。

公司介绍

我们没有关于这个机场的公司信息。

体会

到Vliegles.nl去找飞行课程,跳伞和其他飞行体验。 浏览页面,了解Delta (SEI) Heliport附近所有可用的活动。 你也可以使用搜索功能来寻找你所在地附近的特定飞行课程、跳伞或其他飞行体验。

乌云

2.500 ft FEW 几云
8.000 ft FEW 几云
20.000 ft FEW 几云
22.000 ft SCT 疏云,零星散落的云朵

温度 & 天气

温度 10 °C
露点 8 °C
相对湿度 88%
Kp-index 0 (0-9)

评论

SLP257海平面压力为30,29 inHg (30,29 inHg)
CU1AC1CC1CI2 CC TR

白天

日出
07:06
中午
12:26
日落
17:45 (3:15)

小工具

你想在你的网站上有一个关于Delta (SEI) Heliport的当前航空天气(METAR)的小部件吗?

显示HTML代码
?>